sensor_id;sensor_type;location;lat;lon;timestamp;P1;durP1;ratioP1;P2;durP2;ratioP2
76228;SDS011;65021;53.174;18.160;2024-02-14T00:01:20;13.40;;;5.40;;
76228;SDS011;65021;53.174;18.160;2024-02-14T00:03:46;19.60;;;7.40;;
76228;SDS011;65021;53.174;18.160;2024-02-14T00:06:12;16.20;;;6.00;;
76228;SDS011;65021;53.174;18.160;2024-02-14T00:08:39;17.40;;;6.40;;
76228;SDS011;65021;53.174;18.160;2024-02-14T00:11:05;16.60;;;6.00;;
76228;SDS011;65021;53.174;18.160;2024-02-14T00:13:31;14.10;;;5.50;;
76228;SDS011;65021;53.174;18.160;2024-02-14T00:16:00;12.60;;;5.90;;
76228;SDS011;65021;53.174;18.160;2024-02-14T00:18:28;18.30;;;6.90;;
76228;SDS011;65021;53.174;18.160;2024-02-14T00:20:54;11.80;;;5.20;;
76228;SDS011;65021;53.174;18.160;2024-02-14T00:23:20;14.80;;;5.90;;
76228;SDS011;65021;53.174;18.160;2024-02-14T00:25:46;15.10;;;6.40;;
76228;SDS011;65021;53.174;18.160;2024-02-14T00:28:12;16.90;;;7.20;;
76228;SDS011;65021;53.174;18.160;2024-02-14T00:30:38;16.40;;;5.90;;
76228;SDS011;65021;53.174;18.160;2024-02-14T00:33:04;16.30;;;6.20;;
76228;SDS011;65021;53.174;18.160;2024-02-14T00:35:30;15.50;;;6.30;;
76228;SDS011;65021;53.174;18.160;2024-02-14T00:37:56;13.70;;;5.40;;
76228;SDS011;65021;53.174;18.160;2024-02-14T00:40:22;13.80;;;5.60;;
76228;SDS011;65021;53.174;18.160;2024-02-14T00:42:49;14.80;;;6.80;;
76228;SDS011;65021;53.174;18.160;2024-02-14T00:45:15;15.30;;;5.70;;
76228;SDS011;65021;53.174;18.160;2024-02-14T00:47:41;13.30;;;5.80;;
76228;SDS011;65021;53.174;18.160;2024-02-14T00:50:06;19.30;;;8.20;;
76228;SDS011;65021;53.174;18.160;2024-02-14T00:52:33;19.10;;;6.70;;
76228;SDS011;65021;53.174;18.160;2024-02-14T00:54:59;16.00;;;6.40;;
76228;SDS011;65021;53.174;18.160;2024-02-14T00:57:28;13.50;;;6.90;;
76228;SDS011;65021;53.174;18.160;2024-02-14T00:59:55;15.50;;;7.20;;
76228;SDS011;65021;53.174;18.160;2024-02-14T01:02:22;15.90;;;6.60;;
76228;SDS011;65021;53.174;18.160;2024-02-14T01:04:48;13.70;;;6.80;;
76228;SDS011;65021;53.174;18.160;2024-02-14T01:07:14;15.00;;;6.80;;
76228;SDS011;65021;53.174;18.160;2024-02-14T01:09:40;14.40;;;6.00;;
76228;SDS011;65021;53.174;18.160;2024-02-14T01:12:05;16.00;;;6.20;;
76228;SDS011;65021;53.174;18.160;2024-02-14T01:14:33;16.60;;;7.40;;
76228;SDS011;65021;53.174;18.160;2024-02-14T01:17:05;16.30;;;7.00;;
76228;SDS011;65021;53.174;18.160;2024-02-14T01:19:30;15.00;;;6.60;;
76228;SDS011;65021;53.174;18.160;2024-02-14T01:21:57;20.70;;;8.10;;
76228;SDS011;65021;53.174;18.160;2024-02-14T01:24:23;16.30;;;6.80;;
76228;SDS011;65021;53.174;18.160;2024-02-14T01:26:52;15.40;;;7.20;;
76228;SDS011;65021;53.174;18.160;2024-02-14T01:29:20;16.70;;;7.70;;
76228;SDS011;65021;53.174;18.160;2024-02-14T01:31:46;15.30;;;5.90;;
76228;SDS011;65021;53.174;18.160;2024-02-14T01:34:11;12.50;;;5.50;;
76228;SDS011;65021;53.174;18.160;2024-02-14T01:36:37;15.40;;;6.00;;
76228;SDS011;65021;53.174;18.160;2024-02-14T01:39:04;13.90;;;6.00;;
76228;SDS011;65021;53.174;18.160;2024-02-14T01:41:43;16.90;;;7.10;;
76228;SDS011;65021;53.174;18.160;2024-02-14T01:44:11;14.60;;;6.20;;
76228;SDS011;65021;53.174;18.160;2024-02-14T01:46:37;17.00;;;7.00;;
76228;SDS011;65021;53.174;18.160;2024-02-14T01:49:05;15.60;;;6.50;;
76228;SDS011;65021;53.174;18.160;2024-02-14T01:51:31;16.90;;;7.00;;
76228;SDS011;65021;53.174;18.160;2024-02-14T01:53:57;14.10;;;6.40;;
76228;SDS011;65021;53.174;18.160;2024-02-14T01:56:24;16.20;;;7.40;;
76228;SDS011;65021;53.174;18.160;2024-02-14T01:58:53;14.40;;;6.40;;
76228;SDS011;65021;53.174;18.160;2024-02-14T02:01:19;15.10;;;6.80;;
76228;SDS011;65021;53.174;18.160;2024-02-14T02:03:45;14.10;;;7.20;;
76228;SDS011;65021;53.174;18.160;2024-02-14T02:06:11;13.80;;;6.30;;
76228;SDS011;65021;53.174;18.160;2024-02-14T02:08:37;18.30;;;6.60;;
76228;SDS011;65021;53.174;18.160;2024-02-14T02:11:03;19.90;;;6.90;;
76228;SDS011;65021;53.174;18.160;2024-02-14T02:13:29;13.60;;;5.60;;
76228;SDS011;65021;53.174;18.160;2024-02-14T02:15:55;15.70;;;5.70;;
76228;SDS011;65021;53.174;18.160;2024-02-14T02:18:22;16.40;;;6.20;;
76228;SDS011;65021;53.174;18.160;2024-02-14T02:20:48;15.20;;;6.20;;
76228;SDS011;65021;53.174;18.160;2024-02-14T02:23:14;16.00;;;7.20;;
76228;SDS011;65021;53.174;18.160;2024-02-14T02:25:41;16.70;;;6.60;;
76228;SDS011;65021;53.174;18.160;2024-02-14T02:28:07;16.80;;;7.60;;
76228;SDS011;65021;53.174;18.160;2024-02-14T02:30:37;15.20;;;6.00;;
76228;SDS011;65021;53.174;18.160;2024-02-14T02:33:03;16.00;;;6.10;;
76228;SDS011;65021;53.174;18.160;2024-02-14T02:35:30;16.90;;;6.10;;
76228;SDS011;65021;53.174;18.160;2024-02-14T02:37:56;22.90;;;7.40;;
76228;SDS011;65021;53.174;18.160;2024-02-14T02:40:22;15.90;;;6.20;;
76228;SDS011;65021;53.174;18.160;2024-02-14T02:42:49;13.40;;;6.00;;
76228;SDS011;65021;53.174;18.160;2024-02-14T02:45:16;15.70;;;6.40;;
76228;SDS011;65021;53.174;18.160;2024-02-14T02:47:42;15.70;;;6.90;;
76228;SDS011;65021;53.174;18.160;2024-02-14T02:50:08;16.80;;;6.60;;
76228;SDS011;65021;53.174;18.160;2024-02-14T02:52:34;15.10;;;6.30;;
76228;SDS011;65021;53.174;18.160;2024-02-14T02:55:01;13.20;;;6.30;;
76228;SDS011;65021;53.174;18.160;2024-02-14T02:57:28;14.60;;;6.20;;
76228;SDS011;65021;53.174;18.160;2024-02-14T02:59:55;16.50;;;7.60;;
76228;SDS011;65021;53.174;18.160;2024-02-14T03:02:21;15.90;;;7.00;;
76228;SDS011;65021;53.174;18.160;2024-02-14T03:04:46;17.20;;;6.70;;
76228;SDS011;65021;53.174;18.160;2024-02-14T03:07:12;18.30;;;7.10;;
76228;SDS011;65021;53.174;18.160;2024-02-14T03:09:38;16.80;;;7.10;;
76228;SDS011;65021;53.174;18.160;2024-02-14T03:12:04;22.00;;;8.20;;
76228;SDS011;65021;53.174;18.160;2024-02-14T03:14:31;18.50;;;7.80;;
76228;SDS011;65021;53.174;18.160;2024-02-14T03:17:01;16.20;;;7.10;;
76228;SDS011;65021;53.174;18.160;2024-02-14T03:19:28;17.50;;;7.70;;
76228;SDS011;65021;53.174;18.160;2024-02-14T03:21:54;15.40;;;6.30;;
76228;SDS011;65021;53.174;18.160;2024-02-14T03:24:21;17.80;;;7.20;;
76228;SDS011;65021;53.174;18.160;2024-02-14T03:26:47;14.50;;;6.50;;
76228;SDS011;65021;53.174;18.160;2024-02-14T03:29:16;17.20;;;7.60;;
76228;SDS011;65021;53.174;18.160;2024-02-14T03:31:45;16.60;;;7.00;;
76228;SDS011;65021;53.174;18.160;2024-02-14T03:34:12;15.80;;;7.60;;
76228;SDS011;65021;53.174;18.160;2024-02-14T03:36:38;16.10;;;7.50;;
76228;SDS011;65021;53.174;18.160;2024-02-14T03:39:04;13.50;;;6.20;;
76228;SDS011;65021;53.174;18.160;2024-02-14T03:41:32;16.80;;;6.80;;
76228;SDS011;65021;53.174;18.160;2024-02-14T03:43:58;13.10;;;6.20;;
76228;SDS011;65021;53.174;18.160;2024-02-14T03:46:26;16.80;;;8.20;;
76228;SDS011;65021;53.174;18.160;2024-02-14T03:48:56;18.60;;;7.70;;
76228;SDS011;65021;53.174;18.160;2024-02-14T03:51:23;19.50;;;7.80;;
76228;SDS011;65021;53.174;18.160;2024-02-14T03:53:49;21.80;;;7.10;;
76228;SDS011;65021;53.174;18.160;2024-02-14T03:56:15;17.10;;;7.20;;
76228;SDS011;65021;53.174;18.160;2024-02-14T03:58:42;18.90;;;7.50;;
76228;SDS011;65021;53.174;18.160;2024-02-14T04:01:08;19.30;;;8.30;;
76228;SDS011;65021;53.174;18.160;2024-02-14T04:03:34;16.70;;;6.80;;
76228;SDS011;65021;53.174;18.160;2024-02-14T04:06:00;19.20;;;7.70;;
76228;SDS011;65021;53.174;18.160;2024-02-14T04:08:26;19.20;;;8.40;;
76228;SDS011;65021;53.174;18.160;2024-02-14T04:10:52;20.90;;;9.10;;
76228;SDS011;65021;53.174;18.160;2024-02-14T04:13:21;18.60;;;7.80;;
76228;SDS011;65021;53.174;18.160;2024-02-14T04:15:48;20.60;;;8.00;;
76228;SDS011;65021;53.174;18.160;2024-02-14T04:18:13;15.40;;;6.10;;
76228;SDS011;65021;53.174;18.160;2024-02-14T04:20:41;20.00;;;7.90;;
76228;SDS011;65021;53.174;18.160;2024-02-14T04:23:08;23.30;;;8.00;;
76228;SDS011;65021;53.174;18.160;2024-02-14T04:25:34;23.50;;;9.00;;
76228;SDS011;65021;53.174;18.160;2024-02-14T04:28:04;20.10;;;8.00;;
76228;SDS011;65021;53.174;18.160;2024-02-14T04:30:30;22.80;;;9.00;;
76228;SDS011;65021;53.174;18.160;2024-02-14T04:32:56;17.90;;;7.10;;
76228;SDS011;65021;53.174;18.160;2024-02-14T04:35:22;22.90;;;8.60;;
76228;SDS011;65021;53.174;18.160;2024-02-14T04:37:48;17.50;;;7.10;;
76228;SDS011;65021;53.174;18.160;2024-02-14T04:40:15;19.80;;;7.40;;
76228;SDS011;65021;53.174;18.160;2024-02-14T04:42:41;17.30;;;7.80;;
76228;SDS011;65021;53.174;18.160;2024-02-14T04:45:07;18.60;;;8.00;;
76228;SDS011;65021;53.174;18.160;2024-02-14T04:47:34;17.80;;;7.50;;
76228;SDS011;65021;53.174;18.160;2024-02-14T04:50:00;21.50;;;8.70;;
76228;SDS011;65021;53.174;18.160;2024-02-14T04:52:29;22.70;;;9.20;;
76228;SDS011;65021;53.174;18.160;2024-02-14T04:54:55;21.60;;;8.70;;
76228;SDS011;65021;53.174;18.160;2024-02-14T04:57:22;19.60;;;7.60;;
76228;SDS011;65021;53.174;18.160;2024-02-14T04:59:48;15.20;;;6.60;;
76228;SDS011;65021;53.174;18.160;2024-02-14T05:02:14;16.20;;;6.40;;
76228;SDS011;65021;53.174;18.160;2024-02-14T05:04:40;20.00;;;7.70;;
76228;SDS011;65021;53.174;18.160;2024-02-14T05:07:06;17.70;;;7.00;;
76228;SDS011;65021;53.174;18.160;2024-02-14T05:09:33;22.00;;;8.40;;
76228;SDS011;65021;53.174;18.160;2024-02-14T05:11:59;18.80;;;6.40;;
76228;SDS011;65021;53.174;18.160;2024-02-14T05:14:25;17.10;;;7.80;;
76228;SDS011;65021;53.174;18.160;2024-02-14T05:16:51;20.50;;;10.10;;
76228;SDS011;65021;53.174;18.160;2024-02-14T05:19:17;21.30;;;8.80;;
76228;SDS011;65021;53.174;18.160;2024-02-14T05:21:43;23.50;;;10.60;;
76228;SDS011;65021;53.174;18.160;2024-02-14T05:24:09;22.10;;;8.50;;
76228;SDS011;65021;53.174;18.160;2024-02-14T05:26:35;21.10;;;9.80;;
76228;SDS011;65021;53.174;18.160;2024-02-14T05:29:01;22.70;;;9.70;;
76228;SDS011;65021;53.174;18.160;2024-02-14T05:31:29;22.80;;;9.60;;
76228;SDS011;65021;53.174;18.160;2024-02-14T05:34:09;19.20;;;8.90;;
76228;SDS011;65021;53.174;18.160;2024-02-14T05:36:36;20.40;;;9.00;;
76228;SDS011;65021;53.174;18.160;2024-02-14T05:39:02;26.80;;;9.20;;
76228;SDS011;65021;53.174;18.160;2024-02-14T05:41:29;23.30;;;10.70;;
76228;SDS011;65021;53.174;18.160;2024-02-14T05:43:56;20.10;;;7.70;;
76228;SDS011;65021;53.174;18.160;2024-02-14T05:46:21;16.30;;;7.40;;
76228;SDS011;65021;53.174;18.160;2024-02-14T05:48:47;24.20;;;10.60;;
76228;SDS011;65021;53.174;18.160;2024-02-14T05:51:14;23.10;;;8.70;;
76228;SDS011;65021;53.174;18.160;2024-02-14T05:53:39;17.80;;;7.80;;
76228;SDS011;65021;53.174;18.160;2024-02-14T05:56:05;17.30;;;7.40;;
76228;SDS011;65021;53.174;18.160;2024-02-14T05:58:32;22.20;;;8.80;;
76228;SDS011;65021;53.174;18.160;2024-02-14T06:00:58;19.50;;;7.80;;
76228;SDS011;65021;53.174;18.160;2024-02-14T06:03:24;16.10;;;7.30;;
76228;SDS011;65021;53.174;18.160;2024-02-14T06:05:50;17.80;;;7.30;;
76228;SDS011;65021;53.174;18.160;2024-02-14T06:08:16;22.20;;;8.10;;
76228;SDS011;65021;53.174;18.160;2024-02-14T06:10:42;18.40;;;7.00;;
76228;SDS011;65021;53.174;18.160;2024-02-14T06:13:08;18.80;;;7.50;;
76228;SDS011;65021;53.174;18.160;2024-02-14T06:15:35;22.90;;;8.60;;
76228;SDS011;65021;53.174;18.160;2024-02-14T06:18:01;16.40;;;7.00;;
76228;SDS011;65021;53.174;18.160;2024-02-14T06:20:27;15.90;;;7.60;;
76228;SDS011;65021;53.174;18.160;2024-02-14T06:22:53;20.70;;;8.90;;
76228;SDS011;65021;53.174;18.160;2024-02-14T06:25:20;16.20;;;6.80;;
76228;SDS011;65021;53.174;18.160;2024-02-14T06:27:46;21.70;;;8.00;;
76228;SDS011;65021;53.174;18.160;2024-02-14T06:30:12;21.30;;;8.30;;
76228;SDS011;65021;53.174;18.160;2024-02-14T06:32:38;20.00;;;8.10;;
76228;SDS011;65021;53.174;18.160;2024-02-14T06:35:04;16.20;;;7.60;;
76228;SDS011;65021;53.174;18.160;2024-02-14T06:37:30;18.50;;;7.70;;
76228;SDS011;65021;53.174;18.160;2024-02-14T06:39:56;20.10;;;8.70;;
76228;SDS011;65021;53.174;18.160;2024-02-14T06:42:22;24.70;;;9.90;;
76228;SDS011;65021;53.174;18.160;2024-02-14T06:44:48;25.00;;;11.00;;
76228;SDS011;65021;53.174;18.160;2024-02-14T06:47:15;23.30;;;9.90;;
76228;SDS011;65021;53.174;18.160;2024-02-14T06:49:41;26.90;;;11.50;;
76228;SDS011;65021;53.174;18.160;2024-02-14T06:52:07;25.20;;;10.60;;
76228;SDS011;65021;53.174;18.160;2024-02-14T06:54:32;29.80;;;13.00;;
76228;SDS011;65021;53.174;18.160;2024-02-14T06:56:59;24.60;;;11.00;;
76228;SDS011;65021;53.174;18.160;2024-02-14T06:59:25;33.00;;;13.70;;
76228;SDS011;65021;53.174;18.160;2024-02-14T07:01:51;29.80;;;12.60;;
76228;SDS011;65021;53.174;18.160;2024-02-14T07:04:21;35.90;;;14.00;;
76228;SDS011;65021;53.174;18.160;2024-02-14T07:06:54;37.20;;;15.90;;
76228;SDS011;65021;53.174;18.160;2024-02-14T07:09:20;31.30;;;15.10;;
76228;SDS011;65021;53.174;18.160;2024-02-14T07:11:46;39.20;;;16.60;;
76228;SDS011;65021;53.174;18.160;2024-02-14T07:14:11;33.50;;;13.20;;
76228;SDS011;65021;53.174;18.160;2024-02-14T07:16:37;28.60;;;12.20;;
76228;SDS011;65021;53.174;18.160;2024-02-14T07:19:03;37.20;;;14.90;;
76228;SDS011;65021;53.174;18.160;2024-02-14T07:21:29;26.80;;;11.40;;
76228;SDS011;65021;53.174;18.160;2024-02-14T07:23:55;25.90;;;11.20;;
76228;SDS011;65021;53.174;18.160;2024-02-14T07:26:21;30.60;;;12.50;;
76228;SDS011;65021;53.174;18.160;2024-02-14T07:28:47;35.60;;;16.20;;
76228;SDS011;65021;53.174;18.160;2024-02-14T07:31:13;36.60;;;17.30;;
76228;SDS011;65021;53.174;18.160;2024-02-14T07:33:39;29.20;;;15.50;;
76228;SDS011;65021;53.174;18.160;2024-02-14T07:36:05;32.50;;;15.80;;
76228;SDS011;65021;53.174;18.160;2024-02-14T07:38:31;31.90;;;16.00;;
76228;SDS011;65021;53.174;18.160;2024-02-14T07:40:57;31.60;;;15.00;;
76228;SDS011;65021;53.174;18.160;2024-02-14T07:43:23;29.20;;;14.30;;
76228;SDS011;65021;53.174;18.160;2024-02-14T07:45:49;33.80;;;14.80;;
76228;SDS011;65021;53.174;18.160;2024-02-14T07:48:15;28.50;;;14.20;;
76228;SDS011;65021;53.174;18.160;2024-02-14T07:50:41;29.10;;;15.10;;
76228;SDS011;65021;53.174;18.160;2024-02-14T07:53:07;25.90;;;11.90;;
76228;SDS011;65021;53.174;18.160;2024-02-14T07:55:33;27.30;;;12.50;;
76228;SDS011;65021;53.174;18.160;2024-02-14T07:57:59;28.40;;;13.30;;
76228;SDS011;65021;53.174;18.160;2024-02-14T08:00:26;22.20;;;9.20;;
76228;SDS011;65021;53.174;18.160;2024-02-14T08:02:52;26.20;;;11.50;;
76228;SDS011;65021;53.174;18.160;2024-02-14T08:05:18;25.80;;;12.20;;
76228;SDS011;65021;53.174;18.160;2024-02-14T08:07:45;27.80;;;11.60;;
76228;SDS011;65021;53.174;18.160;2024-02-14T08:10:12;24.90;;;12.60;;
76228;SDS011;65021;53.174;18.160;2024-02-14T08:12:38;30.00;;;13.80;;
76228;SDS011;65021;53.174;18.160;2024-02-14T08:15:04;27.60;;;12.60;;
76228;SDS011;65021;53.174;18.160;2024-02-14T08:17:32;31.30;;;15.20;;
76228;SDS011;65021;53.174;18.160;2024-02-14T08:19:59;37.00;;;15.90;;
76228;SDS011;65021;53.174;18.160;2024-02-14T08:22:26;34.40;;;14.30;;
76228;SDS011;65021;53.174;18.160;2024-02-14T08:24:52;33.70;;;14.70;;
76228;SDS011;65021;53.174;18.160;2024-02-14T08:27:18;44.40;;;18.70;;
76228;SDS011;65021;53.174;18.160;2024-02-14T08:29:44;41.70;;;18.30;;
76228;SDS011;65021;53.174;18.160;2024-02-14T08:32:10;39.60;;;17.10;;
76228;SDS011;65021;53.174;18.160;2024-02-14T08:34:36;43.40;;;18.50;;
76228;SDS011;65021;53.174;18.160;2024-02-14T08:37:02;37.20;;;16.70;;
76228;SDS011;65021;53.174;18.160;2024-02-14T08:39:28;28.70;;;14.10;;
76228;SDS011;65021;53.174;18.160;2024-02-14T08:41:54;31.10;;;15.40;;
76228;SDS011;65021;53.174;18.160;2024-02-14T08:44:20;28.20;;;11.60;;
76228;SDS011;65021;53.174;18.160;2024-02-14T08:46:46;29.40;;;15.00;;
76228;SDS011;65021;53.174;18.160;2024-02-14T08:49:14;32.40;;;15.60;;
76228;SDS011;65021;53.174;18.160;2024-02-14T08:51:40;31.30;;;13.70;;
76228;SDS011;65021;53.174;18.160;2024-02-14T08:54:08;24.80;;;11.60;;
76228;SDS011;65021;53.174;18.160;2024-02-14T08:56:34;27.50;;;13.90;;
76228;SDS011;65021;53.174;18.160;2024-02-14T08:59:02;28.50;;;14.00;;
76228;SDS011;65021;53.174;18.160;2024-02-14T09:01:29;30.50;;;14.70;;
76228;SDS011;65021;53.174;18.160;2024-02-14T09:03:56;30.20;;;15.20;;
76228;SDS011;65021;53.174;18.160;2024-02-14T09:06:22;28.80;;;14.60;;
76228;SDS011;65021;53.174;18.160;2024-02-14T09:08:48;27.20;;;14.90;;
76228;SDS011;65021;53.174;18.160;2024-02-14T09:11:16;31.10;;;14.40;;
76228;SDS011;65021;53.174;18.160;2024-02-14T09:13:42;34.60;;;17.00;;
76228;SDS011;65021;53.174;18.160;2024-02-14T09:16:08;29.40;;;14.10;;
76228;SDS011;65021;53.174;18.160;2024-02-14T09:18:34;28.10;;;13.90;;
76228;SDS011;65021;53.174;18.160;2024-02-14T09:21:01;30.70;;;15.10;;
76228;SDS011;65021;53.174;18.160;2024-02-14T09:23:29;25.30;;;14.00;;
76228;SDS011;65021;53.174;18.160;2024-02-14T09:25:55;28.70;;;15.00;;
76228;SDS011;65021;53.174;18.160;2024-02-14T09:28:22;28.40;;;14.60;;
76228;SDS011;65021;53.174;18.160;2024-02-14T09:30:49;31.00;;;15.20;;
76228;SDS011;65021;53.174;18.160;2024-02-14T09:33:15;27.60;;;15.30;;
76228;SDS011;65021;53.174;18.160;2024-02-14T09:35:41;30.60;;;14.80;;
76228;SDS011;65021;53.174;18.160;2024-02-14T09:38:11;27.70;;;14.30;;
76228;SDS011;65021;53.174;18.160;2024-02-14T09:40:40;25.30;;;13.10;;
76228;SDS011;65021;53.174;18.160;2024-02-14T09:43:10;22.70;;;13.90;;
76228;SDS011;65021;53.174;18.160;2024-02-14T09:46:01;24.80;;;11.40;;
76228;SDS011;65021;53.174;18.160;2024-02-14T09:48:29;29.50;;;13.70;;
76228;SDS011;65021;53.174;18.160;2024-02-14T09:50:56;26.80;;;12.80;;
76228;SDS011;65021;53.174;18.160;2024-02-14T09:53:22;29.20;;;12.80;;
76228;SDS011;65021;53.174;18.160;2024-02-14T09:55:52;24.80;;;12.00;;
76228;SDS011;65021;53.174;18.160;2024-02-14T09:58:19;31.60;;;14.50;;
76228;SDS011;65021;53.174;18.160;2024-02-14T10:00:46;25.80;;;12.00;;
76228;SDS011;65021;53.174;18.160;2024-02-14T10:03:12;32.90;;;14.30;;
76228;SDS011;65021;53.174;18.160;2024-02-14T10:05:38;25.90;;;13.10;;
76228;SDS011;65021;53.174;18.160;2024-02-14T10:08:04;22.70;;;9.90;;
76228;SDS011;65021;53.174;18.160;2024-02-14T10:10:33;26.60;;;11.90;;
76228;SDS011;65021;53.174;18.160;2024-02-14T10:13:05;26.50;;;11.40;;
76228;SDS011;65021;53.174;18.160;2024-02-14T10:15:32;18.60;;;9.90;;
76228;SDS011;65021;53.174;18.160;2024-02-14T10:17:59;23.60;;;11.40;;
76228;SDS011;65021;53.174;18.160;2024-02-14T10:20:25;26.70;;;11.50;;
76228;SDS011;65021;53.174;18.160;2024-02-14T10:22:52;22.50;;;11.70;;
76228;SDS011;65021;53.174;18.160;2024-02-14T10:25:26;25.70;;;10.80;;
76228;SDS011;65021;53.174;18.160;2024-02-14T10:27:52;21.80;;;11.10;;
76228;SDS011;65021;53.174;18.160;2024-02-14T10:30:18;21.70;;;10.40;;
76228;SDS011;65021;53.174;18.160;2024-02-14T10:32:45;26.90;;;10.40;;
76228;SDS011;65021;53.174;18.160;2024-02-14T10:35:13;19.70;;;9.30;;
76228;SDS011;65021;53.174;18.160;2024-02-14T10:37:40;17.20;;;8.80;;
76228;SDS011;65021;53.174;18.160;2024-02-14T10:40:06;16.70;;;8.50;;
76228;SDS011;65021;53.174;18.160;2024-02-14T10:42:34;12.30;;;6.80;;
76228;SDS011;65021;53.174;18.160;2024-02-14T10:45:01;16.70;;;8.70;;
76228;SDS011;65021;53.174;18.160;2024-02-14T10:47:32;12.60;;;7.10;;
76228;SDS011;65021;53.174;18.160;2024-02-14T10:50:05;17.10;;;7.60;;
76228;SDS011;65021;53.174;18.160;2024-02-14T10:52:32;16.80;;;8.40;;
76228;SDS011;65021;53.174;18.160;2024-02-14T10:55:02;11.00;;;5.60;;
76228;SDS011;65021;53.174;18.160;2024-02-14T10:57:30;13.70;;;5.70;;
76228;SDS011;65021;53.174;18.160;2024-02-14T11:00:20;11.10;;;5.30;;
76228;SDS011;65021;53.174;18.160;2024-02-14T11:02:47;17.00;;;6.50;;
76228;SDS011;65021;53.174;18.160;2024-02-14T11:05:14;13.50;;;5.90;;
76228;SDS011;65021;53.174;18.160;2024-02-14T11:07:45;8.60;;;4.60;;
76228;SDS011;65021;53.174;18.160;2024-02-14T11:10:17;14.00;;;6.10;;
76228;SDS011;65021;53.174;18.160;2024-02-14T11:12:46;10.40;;;6.00;;
76228;SDS011;65021;53.174;18.160;2024-02-14T11:15:19;10.40;;;5.20;;
76228;SDS011;65021;53.174;18.160;2024-02-14T11:17:47;15.00;;;7.40;;
76228;SDS011;65021;53.174;18.160;2024-02-14T11:20:20;13.10;;;6.70;;
76228;SDS011;65021;53.174;18.160;2024-02-14T11:22:57;13.60;;;5.70;;
76228;SDS011;65021;53.174;18.160;2024-02-14T11:25:29;15.00;;;6.30;;
76228;SDS011;65021;53.174;18.160;2024-02-14T11:28:14;16.70;;;6.90;;
76228;SDS011;65021;53.174;18.160;2024-02-14T11:30:42;19.10;;;7.50;;
76228;SDS011;65021;53.174;18.160;2024-02-14T11:35:43;13.40;;;6.70;;
76228;SDS011;65021;53.174;18.160;2024-02-14T11:38:11;15.20;;;6.90;;
76228;SDS011;65021;53.174;18.160;2024-02-14T11:40:37;12.90;;;5.70;;
76228;SDS011;65021;53.174;18.160;2024-02-14T11:43:16;13.80;;;6.50;;
76228;SDS011;65021;53.174;18.160;2024-02-14T11:45:44;16.40;;;7.10;;
76228;SDS011;65021;53.174;18.160;2024-02-14T11:48:15;12.00;;;6.80;;
76228;SDS011;65021;53.174;18.160;2024-02-14T11:50:42;13.80;;;7.20;;
76228;SDS011;65021;53.174;18.160;2024-02-14T11:53:12;14.40;;;6.90;;
76228;SDS011;65021;53.174;18.160;2024-02-14T11:55:42;17.60;;;6.40;;
76228;SDS011;65021;53.174;18.160;2024-02-14T11:58:08;14.50;;;7.10;;
76228;SDS011;65021;53.174;18.160;2024-02-14T12:00:39;15.90;;;7.40;;
76228;SDS011;65021;53.174;18.160;2024-02-14T12:03:07;10.20;;;4.70;;
76228;SDS011;65021;53.174;18.160;2024-02-14T12:05:36;14.20;;;7.30;;
76228;SDS011;65021;53.174;18.160;2024-02-14T12:08:04;11.90;;;6.10;;
76228;SDS011;65021;53.174;18.160;2024-02-14T12:10:32;12.50;;;6.30;;
76228;SDS011;65021;53.174;18.160;2024-02-14T12:13:07;10.80;;;5.10;;
76228;SDS011;65021;53.174;18.160;2024-02-14T12:15:40;14.80;;;6.50;;
76228;SDS011;65021;53.174;18.160;2024-02-14T12:18:09;13.90;;;5.80;;
76228;SDS011;65021;53.174;18.160;2024-02-14T12:23:05;11.30;;;5.40;;
76228;SDS011;65021;53.174;18.160;2024-02-14T12:25:31;12.40;;;5.80;;
76228;SDS011;65021;53.174;18.160;2024-02-14T12:27:58;12.90;;;5.80;;
76228;SDS011;65021;53.174;18.160;2024-02-14T12:30:33;12.60;;;5.80;;
76228;SDS011;65021;53.174;18.160;2024-02-14T12:33:12;9.30;;;4.00;;
76228;SDS011;65021;53.174;18.160;2024-02-14T12:35:42;10.20;;;3.90;;
76228;SDS011;65021;53.174;18.160;2024-02-14T12:38:10;12.70;;;6.00;;
76228;SDS011;65021;53.174;18.160;2024-02-14T12:40:37;10.40;;;6.00;;
76228;SDS011;65021;53.174;18.160;2024-02-14T12:45:33;12.10;;;5.60;;
76228;SDS011;65021;53.174;18.160;2024-02-14T12:47:59;11.20;;;5.30;;
76228;SDS011;65021;53.174;18.160;2024-02-14T12:50:25;11.60;;;5.60;;
76228;SDS011;65021;53.174;18.160;2024-02-14T12:52:51;10.10;;;5.40;;
76228;SDS011;65021;53.174;18.160;2024-02-14T12:55:17;11.50;;;5.80;;
76228;SDS011;65021;53.174;18.160;2024-02-14T12:57:44;11.80;;;4.90;;
76228;SDS011;65021;53.174;18.160;2024-02-14T13:00:11;11.40;;;5.40;;
76228;SDS011;65021;53.174;18.160;2024-02-14T13:02:38;13.30;;;5.70;;
76228;SDS011;65021;53.174;18.160;2024-02-14T13:05:07;11.70;;;5.90;;
76228;SDS011;65021;53.174;18.160;2024-02-14T13:07:36;16.50;;;6.40;;
76228;SDS011;65021;53.174;18.160;2024-02-14T13:10:02;9.30;;;4.80;;
76228;SDS011;65021;53.174;18.160;2024-02-14T13:12:33;17.50;;;7.20;;
76228;SDS011;65021;53.174;18.160;2024-02-14T13:14:59;11.70;;;6.00;;
76228;SDS011;65021;53.174;18.160;2024-02-14T13:17:25;9.80;;;5.70;;
76228;SDS011;65021;53.174;18.160;2024-02-14T13:19:52;10.60;;;4.50;;
76228;SDS011;65021;53.174;18.160;2024-02-14T13:22:21;12.80;;;5.90;;
76228;SDS011;65021;53.174;18.160;2024-02-14T13:24:47;11.60;;;6.30;;
76228;SDS011;65021;53.174;18.160;2024-02-14T13:27:13;9.90;;;4.10;;
76228;SDS011;65021;53.174;18.160;2024-02-14T13:29:40;8.40;;;4.30;;
76228;SDS011;65021;53.174;18.160;2024-02-14T13:32:06;12.60;;;5.50;;
76228;SDS011;65021;53.174;18.160;2024-02-14T13:34:35;16.00;;;6.00;;
76228;SDS011;65021;53.174;18.160;2024-02-14T13:37:01;12.40;;;6.00;;
76228;SDS011;65021;53.174;18.160;2024-02-14T13:39:28;14.80;;;6.30;;
76228;SDS011;65021;53.174;18.160;2024-02-14T13:41:55;10.80;;;5.80;;
76228;SDS011;65021;53.174;18.160;2024-02-14T13:44:23;13.60;;;5.80;;
76228;SDS011;65021;53.174;18.160;2024-02-14T13:46:52;11.90;;;6.60;;
76228;SDS011;65021;53.174;18.160;2024-02-14T13:49:19;12.40;;;6.30;;
76228;SDS011;65021;53.174;18.160;2024-02-14T13:51:49;13.40;;;7.00;;
76228;SDS011;65021;53.174;18.160;2024-02-14T13:54:19;15.50;;;6.40;;
76228;SDS011;65021;53.174;18.160;2024-02-14T13:56:47;10.20;;;5.80;;
76228;SDS011;65021;53.174;18.160;2024-02-14T13:59:16;12.80;;;5.30;;
76228;SDS011;65021;53.174;18.160;2024-02-14T14:01:42;12.90;;;7.60;;
76228;SDS011;65021;53.174;18.160;2024-02-14T14:04:09;12.30;;;6.40;;
76228;SDS011;65021;53.174;18.160;2024-02-14T14:06:34;12.10;;;6.80;;
76228;SDS011;65021;53.174;18.160;2024-02-14T14:09:01;13.10;;;6.40;;
76228;SDS011;65021;53.174;18.160;2024-02-14T14:11:28;12.40;;;6.00;;
76228;SDS011;65021;53.174;18.160;2024-02-14T14:13:54;11.60;;;5.90;;
76228;SDS011;65021;53.174;18.160;2024-02-14T14:16:21;13.70;;;5.70;;
76228;SDS011;65021;53.174;18.160;2024-02-14T14:18:48;11.60;;;5.50;;
76228;SDS011;65021;53.174;18.160;2024-02-14T14:21:15;9.20;;;4.90;;
76228;SDS011;65021;53.174;18.160;2024-02-14T14:23:41;10.50;;;5.40;;
76228;SDS011;65021;53.174;18.160;2024-02-14T14:26:07;10.40;;;5.30;;